Terminal Aerodrome Forecast
Issued by NWS

Home | Current Version | Previous Version | Text Only | Print | Product List | Glossary On
Versions: 1 2 3 4 5 6 7 8 9 10 11 12 13 14
000
FTUS43 KJKL 161739
TAFSME
TAF
KSME 161739Z 1618/1718 23011G20KT P6SM SKC
     FM162200 22006KT P6SM SKC
     FM171100 VRB03KT P6SM BKN150
     FM171600 VRB04KT 6SM -RA OVC100=

USA.gov is the U.S. government's official web portal to all federal, state and local government web resources and services.